createdAt,value
2023-05-10T00:00:45.439Z,52.73
2023-05-10T00:01:45.405Z,52.63
2023-05-10T00:02:45.470Z,52.43
2023-05-10T00:03:45.497Z,52.63
2023-05-10T00:04:45.371Z,52.94
2023-05-10T00:05:45.661Z,52.94
2023-05-10T00:06:45.347Z,52.84
2023-05-10T00:07:45.329Z,52.84
2023-05-10T00:08:45.299Z,52.73
2023-05-10T00:09:45.295Z,52.73
2023-05-10T00:10:45.296Z,52.63
2023-05-10T00:11:45.256Z,52.53
2023-05-10T00:12:45.256Z,52.33
2023-05-10T00:13:45.216Z,52.33
2023-05-10T00:14:45.226Z,52.84
2023-05-10T00:15:45.232Z,53.24
2023-05-10T00:16:45.240Z,53.04
2023-05-10T00:17:45.212Z,53.06
2023-05-10T00:18:45.181Z,52.96
2023-05-10T00:19:45.203Z,52.96
2023-05-10T00:20:45.153Z,52.86
2023-05-10T00:21:45.138Z,53.27
2023-05-10T00:22:45.097Z,53.57
2023-05-10T00:23:45.224Z,53.17
2023-05-10T00:24:45.086Z,53.06
2023-05-10T00:25:45.079Z,53.57
2023-05-10T00:26:45.036Z,53.37
2023-05-10T00:27:45.046Z,53.57
2023-05-10T00:28:45.028Z,53.17
2023-05-10T00:29:45.030Z,53.47
2023-05-10T00:30:45.008Z,53.78
2023-05-10T00:31:45.030Z,54.18
2023-05-10T00:32:45.002Z,53.88
2023-05-10T00:33:44.987Z,53.70
2023-05-10T00:34:44.950Z,54.00
2023-05-10T00:35:44.934Z,54.51
2023-05-10T00:36:44.919Z,54.41
2023-05-10T00:37:44.918Z,54.31
2023-05-10T00:38:44.932Z,54.51
2023-05-10T00:39:44.878Z,54.92
2023-05-10T00:40:44.878Z,54.41
2023-05-10T00:41:44.865Z,54.61
2023-05-10T00:42:44.831Z,54.41
2023-05-10T00:43:44.856Z,54.72
2023-05-10T00:44:44.819Z,54.61
2023-05-10T00:45:44.866Z,54.61
2023-05-10T00:46:44.783Z,54.94
2023-05-10T00:47:45.182Z,54.94
2023-05-10T00:48:44.799Z,54.74
2023-05-10T00:49:44.752Z,54.64
2023-05-10T00:50:44.737Z,54.74
2023-05-10T00:51:44.769Z,54.94
2023-05-10T00:52:44.722Z,54.74
2023-05-10T00:53:44.734Z,54.64
2023-05-10T00:54:44.670Z,54.44
2023-05-10T00:55:44.692Z,54.64
2023-05-10T00:56:44.671Z,54.64
2023-05-10T00:57:44.663Z,54.85
2023-05-10T00:58:44.638Z,55.66
2023-05-10T00:59:44.630Z,55.15
2023-05-10T01:00:44.593Z,55.25
2023-05-10T01:01:44.625Z,55.46
2023-05-10T01:02:44.702Z,55.66
2023-05-10T01:03:44.590Z,55.66
2023-05-10T01:04:44.622Z,55.46
2023-05-10T01:05:44.543Z,56.09
2023-05-10T01:06:44.531Z,55.68
2023-05-10T01:07:44.523Z,55.79
2023-05-10T01:08:44.534Z,55.89
2023-05-10T01:09:44.488Z,55.79
2023-05-10T01:10:44.470Z,55.89
2023-05-10T01:11:44.537Z,55.68
2023-05-10T01:12:44.516Z,55.28
2023-05-10T01:13:44.473Z,55.38
2023-05-10T01:14:44.446Z,55.58
2023-05-10T01:15:44.501Z,55.38
2023-05-10T01:16:44.427Z,55.18
2023-05-10T01:17:44.475Z,55.48
2023-05-10T01:18:44.430Z,55.99
2023-05-10T01:19:44.390Z,55.89
2023-05-10T01:20:44.360Z,55.99
2023-05-10T01:21:44.356Z,55.68
2023-05-10T01:22:44.319Z,56.09
2023-05-10T01:23:44.321Z,56.09
2023-05-10T01:24:44.285Z,56.40
2023-05-10T01:25:44.311Z,56.20
2023-05-10T01:26:44.282Z,56.29
2023-05-10T01:27:44.254Z,56.40
2023-05-10T01:28:44.243Z,56.20
2023-05-10T01:29:44.231Z,56.09
2023-05-10T01:30:44.229Z,55.89
2023-05-10T01:31:44.303Z,55.79
2023-05-10T01:32:44.250Z,55.99
2023-05-10T01:33:44.186Z,56.09
2023-05-10T01:34:44.169Z,56.09
2023-05-10T01:35:45.193Z,56.12
2023-05-10T01:36:44.145Z,56.32
2023-05-10T01:37:44.121Z,56.52
2023-05-10T01:38:44.128Z,56.83
2023-05-10T01:39:44.089Z,56.63
2023-05-10T01:40:44.087Z,56.63
2023-05-10T01:41:44.099Z,56.52
2023-05-10T01:42:44.077Z,56.42
2023-05-10T01:43:44.063Z,56.52
2023-05-10T01:44:44.037Z,57.34
2023-05-10T01:45:44.027Z,57.34
2023-05-10T01:46:44.093Z,57.54
2023-05-10T01:47:44.025Z,57.04
2023-05-10T01:48:43.975Z,56.93
2023-05-10T01:49:43.993Z,56.63
2023-05-10T01:50:43.960Z,56.83
2023-05-10T01:51:43.967Z,57.34
2023-05-10T01:52:43.932Z,57.04
2023-05-10T01:53:44.017Z,57.65
2023-05-10T01:54:43.904Z,57.78
2023-05-10T01:55:43.879Z,57.87
2023-05-10T01:56:43.871Z,57.87
2023-05-10T01:57:43.846Z,57.98
2023-05-10T01:58:43.831Z,57.37
2023-05-10T01:59:43.829Z,57.47
2023-05-10T02:00:43.850Z,57.57
2023-05-10T02:01:43.809Z,57.57
2023-05-10T02:02:43.821Z,58.08
2023-05-10T02:03:43.848Z,58.08
2023-05-10T02:04:43.799Z,57.87
2023-05-10T02:05:43.737Z,57.87
2023-05-10T02:06:43.727Z,57.87
2023-05-10T02:07:43.722Z,57.87
2023-05-10T02:08:43.712Z,57.87
2023-05-10T02:09:43.707Z,57.98
2023-05-10T02:10:43.684Z,58.18
2023-05-10T02:11:43.661Z,58.18
2023-05-10T02:12:43.720Z,57.98
2023-05-10T02:13:43.657Z,57.98
2023-05-10T02:14:43.707Z,57.98
2023-05-10T02:15:43.606Z,57.87
2023-05-10T02:16:43.622Z,57.47
2023-05-10T02:17:43.653Z,57.67
2023-05-10T02:18:43.614Z,57.98
2023-05-10T02:19:43.573Z,57.87
2023-05-10T02:20:43.563Z,57.98
2023-05-10T02:21:43.554Z,58.08
2023-05-10T02:22:43.535Z,58.28
2023-05-10T02:23:43.565Z,58.28
2023-05-10T02:24:43.494Z,57.87
2023-05-10T02:25:43.487Z,57.87
2023-05-10T02:26:43.466Z,57.87
2023-05-10T02:27:43.476Z,57.87
2023-05-10T02:28:43.464Z,58.08
2023-05-10T02:29:43.434Z,57.98
2023-05-10T02:30:43.420Z,57.90
2023-05-10T02:31:43.516Z,57.90
2023-05-10T02:32:43.448Z,58.08
2023-05-10T02:33:43.421Z,58.01
2023-05-10T02:34:43.391Z,58.21
2023-05-10T02:35:43.391Z,58.11
2023-05-10T02:36:43.348Z,58.01
2023-05-10T02:37:43.404Z,57.90
2023-05-10T02:38:43.320Z,57.60
2023-05-10T02:39:43.304Z,57.39
2023-05-10T02:40:43.294Z,57.57
2023-05-10T02:41:43.261Z,57.70
2023-05-10T02:42:43.295Z,57.70
2023-05-10T02:43:43.258Z,57.50
2023-05-10T02:44:43.233Z,57.60
2023-05-10T02:45:43.269Z,57.60
2023-05-10T02:46:43.221Z,57.47
2023-05-10T02:47:43.238Z,57.70
2023-05-10T02:48:43.183Z,57.80
2023-05-10T02:49:43.166Z,57.50
2023-05-10T02:50:43.151Z,57.39
2023-05-10T02:51:43.158Z,57.70
2023-05-10T02:52:43.136Z,57.80
2023-05-10T02:53:43.102Z,57.80
2023-05-10T02:54:43.094Z,57.80
2023-05-10T02:55:43.104Z,57.90
2023-05-10T02:56:43.125Z,58.01
2023-05-10T02:57:43.078Z,57.90
2023-05-10T02:58:43.054Z,58.21
2023-05-10T02:59:43.059Z,58.11
2023-05-10T03:00:43.053Z,58.01
2023-05-10T03:01:43.063Z,58.31
2023-05-10T03:02:43.115Z,58.31
2023-05-10T03:03:42.982Z,58.31
2023-05-10T03:04:43.001Z,58.31
2023-05-10T03:05:42.972Z,58.31
2023-05-10T03:06:42.958Z,58.31
2023-05-10T03:07:42.951Z,58.21
2023-05-10T03:08:42.950Z,58.21
2023-05-10T03:09:42.903Z,58.62
2023-05-10T03:10:42.923Z,58.62
2023-05-10T03:11:42.897Z,58.92
2023-05-10T03:12:42.928Z,58.82
2023-05-10T03:13:42.847Z,58.51
2023-05-10T03:14:42.853Z,58.21
2023-05-10T03:15:42.877Z,58.62
2023-05-10T03:16:44.772Z,58.72
2023-05-10T03:17:42.846Z,58.92
2023-05-10T03:18:42.847Z,58.72
2023-05-10T03:19:42.796Z,58.85
2023-05-10T03:20:42.779Z,58.85
2023-05-10T03:21:42.750Z,58.75
2023-05-10T03:22:42.757Z,58.44
2023-05-10T03:23:42.728Z,58.54
2023-05-10T03:24:42.725Z,58.75
2023-05-10T03:25:42.683Z,58.54
2023-05-10T03:26:42.693Z,58.85
2023-05-10T03:27:42.690Z,58.95
2023-05-10T03:28:42.680Z,58.85
2023-05-10T03:29:42.662Z,58.64
2023-05-10T03:30:42.626Z,58.75
2023-05-10T03:31:42.633Z,59.26
2023-05-10T03:32:42.653Z,58.95
2023-05-10T03:33:42.594Z,59.05
2023-05-10T03:34:42.629Z,59.05
2023-05-10T03:35:42.574Z,59.05
2023-05-10T03:36:42.559Z,59.26
2023-05-10T03:37:42.548Z,59.16
2023-05-10T03:38:42.549Z,59.05
2023-05-10T03:39:42.521Z,59.26
2023-05-10T03:40:42.492Z,59.26
2023-05-10T03:41:42.512Z,58.95
2023-05-10T03:42:42.502Z,59.26
2023-05-10T03:43:42.510Z,59.36
2023-05-10T03:44:42.484Z,59.36
2023-05-10T03:45:42.428Z,59.46
2023-05-10T03:46:42.470Z,59.56
2023-05-10T03:47:42.434Z,59.66
2023-05-10T03:48:42.419Z,59.56
2023-05-10T03:49:42.374Z,59.66
2023-05-10T03:50:42.372Z,59.56
2023-05-10T03:51:42.366Z,59.36
2023-05-10T03:52:42.381Z,59.56
2023-05-10T03:53:42.327Z,59.77
2023-05-10T03:54:42.328Z,59.77
2023-05-10T03:55:42.314Z,59.87
2023-05-10T03:56:42.356Z,59.87
2023-05-10T03:57:42.286Z,60.07
2023-05-10T03:58:42.285Z,60.07
2023-05-10T03:59:42.304Z,59.87
2023-05-10T04:00:42.267Z,60.17
2023-05-10T04:01:42.254Z,60.17
2023-05-10T04:02:42.353Z,60.07
2023-05-10T04:03:42.368Z,59.87
2023-05-10T04:04:42.239Z,59.97
2023-05-10T04:05:42.199Z,60.17
2023-05-10T04:06:42.214Z,59.97
2023-05-10T04:07:42.172Z,60.07
2023-05-10T04:08:42.169Z,59.97
2023-05-10T04:09:42.120Z,59.97
2023-05-10T04:10:42.159Z,60.17
2023-05-10T04:11:42.134Z,60.17
2023-05-10T04:12:42.176Z,60.58
2023-05-10T04:13:42.074Z,60.28
2023-05-10T04:14:42.123Z,60.38
2023-05-10T04:15:42.109Z,60.28
2023-05-10T04:16:42.136Z,60.07
2023-05-10T04:17:42.157Z,60.38
2023-05-10T04:18:42.021Z,60.38
2023-05-10T04:19:41.998Z,60.48
2023-05-10T04:20:41.970Z,60.38
2023-05-10T04:21:41.972Z,60.69
2023-05-10T04:22:41.974Z,60.69
2023-05-10T04:23:42.068Z,60.48
2023-05-10T04:24:42.071Z,60.38
2023-05-10T04:25:42.039Z,60.38
2023-05-10T04:26:41.954Z,60.17
2023-05-10T04:27:41.899Z,60.38
2023-05-10T04:28:41.926Z,60.07
2023-05-10T04:29:41.924Z,60.58
2023-05-10T04:30:41.864Z,60.25
2023-05-10T04:31:41.820Z,60.28
2023-05-10T04:32:41.907Z,60.14
2023-05-10T04:33:41.826Z,59.94
2023-05-10T04:34:41.796Z,59.94
2023-05-10T04:35:41.778Z,60.14
2023-05-10T04:36:41.770Z,60.14
2023-05-10T04:37:41.767Z,59.94
2023-05-10T04:38:41.839Z,60.25
2023-05-10T04:39:42.487Z,60.05
2023-05-10T04:40:41.711Z,60.14
2023-05-10T04:41:41.719Z,59.74
2023-05-10T04:42:41.709Z,59.84
2023-05-10T04:43:41.698Z,60.76
2023-05-10T04:44:41.687Z,60.25
2023-05-10T04:45:41.689Z,60.45
2023-05-10T04:46:41.732Z,60.66
2023-05-10T04:47:41.827Z,61.37
2023-05-10T04:48:41.669Z,61.07
2023-05-10T04:49:41.598Z,61.57
2023-05-10T04:50:41.580Z,61.88
2023-05-10T04:51:41.596Z,61.98
2023-05-10T04:52:41.598Z,62.18
2023-05-10T04:53:44.567Z,62.29
2023-05-10T04:54:42.542Z,62.39
2023-05-10T04:55:41.545Z,62.18
2023-05-10T04:56:41.541Z,62.70
2023-05-10T04:57:41.512Z,62.59
2023-05-10T04:58:41.455Z,62.80
2023-05-10T04:59:41.489Z,62.90
2023-05-10T05:00:41.450Z,62.80
2023-05-10T05:01:41.488Z,62.59
2023-05-10T05:02:41.469Z,62.39
2023-05-10T05:03:41.491Z,61.88
2023-05-10T05:04:41.402Z,61.98
2023-05-10T05:05:41.374Z,61.98
2023-05-10T05:06:41.408Z,61.78
2023-05-10T05:07:41.353Z,61.37
2023-05-10T05:08:41.335Z,61.47
2023-05-10T05:09:41.353Z,61.27
2023-05-10T05:10:41.347Z,61.57
2023-05-10T05:11:41.320Z,62.08
2023-05-10T05:12:41.298Z,61.78
2023-05-10T05:13:41.261Z,61.68
2023-05-10T05:14:41.270Z,62.18
2023-05-10T05:15:41.325Z,62.08
2023-05-10T05:16:41.329Z,61.88
2023-05-10T05:17:41.248Z,62.18
2023-05-10T05:18:41.211Z,62.49
2023-05-10T05:19:41.201Z,62.29
2023-05-10T05:20:41.182Z,62.08
2023-05-10T05:21:41.171Z,62.08
2023-05-10T05:22:41.143Z,61.88
2023-05-10T05:23:41.132Z,61.68
2023-05-10T05:24:41.132Z,61.47
2023-05-10T05:25:41.121Z,61.75
2023-05-10T05:26:41.098Z,62.16
2023-05-10T05:27:41.068Z,61.88
2023-05-10T05:28:41.059Z,61.95
2023-05-10T05:29:41.072Z,62.16
2023-05-10T05:30:41.045Z,62.46
2023-05-10T05:31:41.067Z,62.36
2023-05-10T05:32:41.064Z,62.16
2023-05-10T05:33:41.006Z,61.85
2023-05-10T05:34:41.126Z,61.54
2023-05-10T05:35:40.984Z,61.65
2023-05-10T05:36:41.007Z,61.34
2023-05-10T05:37:40.956Z,61.54
2023-05-10T05:38:41.012Z,61.85
2023-05-10T05:39:40.945Z,62.05
2023-05-10T05:40:40.923Z,62.46
2023-05-10T05:41:40.896Z,62.36
2023-05-10T05:42:40.901Z,62.26
2023-05-10T05:43:40.870Z,62.26
2023-05-10T05:44:40.889Z,62.66
2023-05-10T05:45:40.854Z,62.36
2023-05-10T05:46:40.842Z,61.95
2023-05-10T05:47:40.932Z,61.95
2023-05-10T05:48:48.370Z,61.44
2023-05-10T05:49:40.809Z,62.05
2023-05-10T05:50:40.777Z,62.36
2023-05-10T05:51:40.748Z,61.95
2023-05-10T05:52:40.753Z,61.75
2023-05-10T05:53:40.736Z,61.65
2023-05-10T05:54:40.737Z,61.54
2023-05-10T05:55:40.703Z,61.72
2023-05-10T05:56:40.702Z,61.52
2023-05-10T05:57:40.696Z,61.61
2023-05-10T05:58:40.686Z,62.02
2023-05-10T05:59:40.666Z,62.02
2023-05-10T06:00:40.641Z,61.82
2023-05-10T06:01:40.665Z,61.93
2023-05-10T06:02:40.722Z,61.82
2023-05-10T06:03:40.685Z,61.52
2023-05-10T06:04:41.577Z,61.41
2023-05-10T06:05:40.577Z,61.69
2023-05-10T06:06:40.598Z,61.69
2023-05-10T06:07:40.567Z,61.49
2023-05-10T06:08:40.549Z,62.10
2023-05-10T06:09:40.530Z,61.79
2023-05-10T06:10:40.513Z,62.61
2023-05-10T06:11:40.502Z,62.71
2023-05-10T06:12:40.502Z,62.40
2023-05-10T06:13:40.498Z,62.30
2023-05-10T06:14:40.452Z,62.30
2023-05-10T06:15:42.252Z,62.81
2023-05-10T06:16:40.507Z,63.32
2023-05-10T06:17:40.449Z,62.81
2023-05-10T06:18:40.447Z,62.61
2023-05-10T06:19:40.410Z,63.22
2023-05-10T06:20:40.397Z,63.09
2023-05-10T06:21:40.361Z,62.48
2023-05-10T06:22:40.446Z,62.78
2023-05-10T06:23:40.464Z,62.98
2023-05-10T06:24:40.436Z,63.49
2023-05-10T06:25:40.443Z,63.80
2023-05-10T06:26:40.443Z,63.39
2023-05-10T06:27:40.311Z,62.78
2023-05-10T06:28:40.280Z,63.09
2023-05-10T06:29:40.294Z,62.78
2023-05-10T06:30:40.258Z,62.85
2023-05-10T06:31:40.341Z,62.75
2023-05-10T06:32:40.267Z,63.06
2023-05-10T06:33:40.216Z,62.96
2023-05-10T06:34:40.245Z,62.75
2023-05-10T06:35:40.240Z,63.13
2023-05-10T06:36:40.184Z,62.82
2023-05-10T06:37:40.173Z,62.72
2023-05-10T06:38:40.136Z,62.72
2023-05-10T06:39:40.153Z,62.62
2023-05-10T06:40:40.102Z,62.52
2023-05-10T06:41:40.141Z,62.41
2023-05-10T06:42:40.136Z,62.39
2023-05-10T06:43:40.080Z,62.39
2023-05-10T06:44:40.070Z,62.18
2023-05-10T06:45:40.053Z,62.39
2023-05-10T06:46:40.087Z,62.18
2023-05-10T06:47:40.080Z,62.59
2023-05-10T06:48:40.014Z,62.49
2023-05-10T06:49:39.999Z,62.29
2023-05-10T06:50:40.069Z,62.49
2023-05-10T06:51:39.975Z,62.39
2023-05-10T06:52:39.956Z,62.59
2023-05-10T06:53:39.963Z,62.82
2023-05-10T06:54:39.941Z,63.20
2023-05-10T06:55:39.929Z,62.93
2023-05-10T06:56:39.899Z,62.62
2023-05-10T06:57:39.889Z,63.02
2023-05-10T06:58:39.923Z,63.13
2023-05-10T06:59:39.861Z,63.54
2023-05-10T07:00:39.882Z,63.64
2023-05-10T07:01:39.874Z,63.43
2023-05-10T07:02:39.857Z,63.64
2023-05-10T07:03:39.814Z,63.54
2023-05-10T07:04:39.860Z,63.84
2023-05-10T07:05:39.908Z,64.15
2023-05-10T07:06:39.770Z,64.04
2023-05-10T07:07:39.763Z,63.94
2023-05-10T07:08:39.743Z,63.84
2023-05-10T07:09:39.725Z,64.15
2023-05-10T07:10:39.715Z,63.94
2023-05-10T07:11:39.689Z,64.15
2023-05-10T07:12:39.774Z,64.35
2023-05-10T07:13:39.698Z,64.22
2023-05-10T07:14:39.656Z,64.12
2023-05-10T07:15:39.649Z,64.62
2023-05-10T07:16:39.706Z,64.73
2023-05-10T07:17:40.200Z,64.62
2023-05-10T07:18:39.621Z,65.23
2023-05-10T07:19:39.597Z,65.23
2023-05-10T07:20:39.569Z,65.03
2023-05-10T07:21:39.575Z,64.83
2023-05-10T07:22:39.581Z,64.83
2023-05-10T07:23:39.545Z,65.13
2023-05-10T07:24:39.509Z,65.13
2023-05-10T07:25:39.532Z,65.13
2023-05-10T07:26:39.511Z,65.00
2023-05-10T07:27:39.499Z,64.90
2023-05-10T07:28:39.462Z,64.90
2023-05-10T07:29:39.458Z,65.20
2023-05-10T07:30:39.534Z,65.61
2023-05-10T07:31:39.482Z,65.81
2023-05-10T07:32:39.495Z,66.12
2023-05-10T07:33:39.395Z,67.03
2023-05-10T07:34:39.394Z,66.63
2023-05-10T07:35:39.384Z,66.32
2023-05-10T07:36:39.375Z,66.42
2023-05-10T07:37:39.339Z,66.22
2023-05-10T07:38:40.928Z,66.02
2023-05-10T07:39:39.328Z,66.02
2023-05-10T07:40:39.313Z,65.91
2023-05-10T07:41:39.284Z,65.68
2023-05-10T07:42:39.303Z,65.99
2023-05-10T07:43:39.271Z,66.08
2023-05-10T07:44:39.260Z,66.08
2023-05-10T07:45:39.395Z,66.08
2023-05-10T07:46:39.224Z,66.08
2023-05-10T07:47:39.234Z,66.90
2023-05-10T07:48:39.201Z,66.49
2023-05-10T07:49:39.214Z,67.20
2023-05-10T07:50:39.182Z,67.41
2023-05-10T07:51:39.151Z,67.91
2023-05-10T07:52:39.146Z,67.41
2023-05-10T07:53:39.134Z,67.10
2023-05-10T07:54:39.121Z,67.00
2023-05-10T07:55:39.116Z,67.17
2023-05-10T07:56:39.099Z,67.47
2023-05-10T07:57:39.083Z,67.07
2023-05-10T07:58:39.089Z,67.17
2023-05-10T07:59:39.067Z,67.07
2023-05-10T08:00:39.038Z,67.17
2023-05-10T08:01:39.024Z,67.47
2023-05-10T08:02:39.139Z,67.58
2023-05-10T08:03:39.215Z,67.38
2023-05-10T08:04:39.120Z,67.58
2023-05-10T08:05:38.985Z,67.88
2023-05-10T08:06:39.043Z,67.55
2023-05-10T08:07:38.947Z,67.44
2023-05-10T08:08:38.933Z,67.55
2023-05-10T08:09:38.909Z,67.65
2023-05-10T08:10:38.908Z,68.26
2023-05-10T08:11:38.899Z,68.15
2023-05-10T08:12:38.880Z,67.85
2023-05-10T08:13:38.894Z,67.75
2023-05-10T08:14:38.838Z,67.61
2023-05-10T08:15:38.877Z,67.72
2023-05-10T08:16:38.805Z,68.32
2023-05-10T08:17:38.886Z,68.02
2023-05-10T08:18:38.851Z,67.61
2023-05-10T08:19:38.771Z,67.72
2023-05-10T08:20:38.750Z,67.92
2023-05-10T08:21:38.753Z,68.32
2023-05-10T08:22:38.772Z,68.12
2023-05-10T08:23:38.731Z,68.23
2023-05-10T08:24:38.704Z,68.52
2023-05-10T08:25:38.707Z,68.32
2023-05-10T08:26:38.691Z,67.92
2023-05-10T08:27:38.686Z,68.32
2023-05-10T08:28:38.707Z,69.03
2023-05-10T08:29:48.844Z,68.93
2023-05-10T08:30:39.626Z,69.03
2023-05-10T08:31:38.661Z,68.93
2023-05-10T08:32:38.663Z,68.73
2023-05-10T08:33:38.599Z,68.83
2023-05-10T08:34:38.578Z,68.83
2023-05-10T08:35:38.581Z,69.13
2023-05-10T08:36:38.669Z,68.93
2023-05-10T08:37:38.532Z,69.03
2023-05-10T08:38:38.515Z,69.24
2023-05-10T08:39:38.512Z,69.54
2023-05-10T08:40:38.489Z,69.34
2023-05-10T08:41:38.513Z,69.44
2023-05-10T08:42:38.475Z,69.44
2023-05-10T08:43:38.463Z,69.74
2023-05-10T08:44:38.435Z,69.54
2023-05-10T08:45:38.446Z,69.74
2023-05-10T08:46:38.478Z,69.84
2023-05-10T08:47:38.425Z,70.05
2023-05-10T08:48:38.418Z,69.74
2023-05-10T08:49:38.377Z,69.64
2023-05-10T08:50:38.394Z,70.05
2023-05-10T08:51:38.353Z,69.64
2023-05-10T08:52:38.333Z,69.92
2023-05-10T08:53:38.322Z,69.92
2023-05-10T08:54:38.303Z,69.71
2023-05-10T08:55:38.315Z,69.71
2023-05-10T08:56:38.291Z,69.31
2023-05-10T08:57:38.285Z,69.71
2023-05-10T08:58:38.251Z,70.01
2023-05-10T08:59:38.262Z,70.01
2023-05-10T09:00:38.383Z,70.01
2023-05-10T09:01:38.246Z,70.01
2023-05-10T09:02:38.264Z,70.42
2023-05-10T09:03:38.220Z,70.59
2023-05-10T09:04:38.261Z,70.39
2023-05-10T09:05:38.160Z,69.98
2023-05-10T09:06:38.175Z,70.18
2023-05-10T09:07:38.155Z,70.79
2023-05-10T09:08:38.131Z,70.79
2023-05-10T09:09:38.124Z,71.00
2023-05-10T09:10:38.094Z,70.79
2023-05-10T09:11:38.096Z,70.39
2023-05-10T09:12:38.086Z,70.29
2023-05-10T09:13:38.083Z,70.18
2023-05-10T09:14:38.053Z,70.39
2023-05-10T09:15:38.036Z,70.49
2023-05-10T09:16:38.148Z,70.18
2023-05-10T09:17:38.017Z,70.05
2023-05-10T09:18:38.016Z,70.05
2023-05-10T09:19:37.983Z,70.36
2023-05-10T09:20:37.972Z,70.15
2023-05-10T09:21:37.965Z,70.25
2023-05-10T09:22:37.942Z,70.56
2023-05-10T09:23:37.941Z,70.45
2023-05-10T09:24:37.919Z,70.36
2023-05-10T09:25:37.917Z,70.45
2023-05-10T09:26:37.961Z,70.45
2023-05-10T09:27:37.890Z,70.65
2023-05-10T09:28:37.899Z,70.86
2023-05-10T09:29:37.851Z,70.65
2023-05-10T09:30:37.878Z,70.65
2023-05-10T09:31:37.812Z,70.76
2023-05-10T09:32:37.896Z,70.76
2023-05-10T09:33:37.789Z,70.73
2023-05-10T09:34:37.774Z,70.73
2023-05-10T09:35:37.772Z,71.33
2023-05-10T09:36:37.797Z,71.47
2023-05-10T09:37:37.756Z,71.23
2023-05-10T09:38:37.728Z,71.03
2023-05-10T09:39:37.717Z,71.44
2023-05-10T09:40:37.711Z,71.33
2023-05-10T09:41:37.712Z,71.53
2023-05-10T09:42:37.687Z,71.84
2023-05-10T09:43:37.661Z,71.33
2023-05-10T09:44:37.664Z,71.33
2023-05-10T09:45:38.931Z,71.33
2023-05-10T09:46:37.694Z,71.84
2023-05-10T09:47:37.698Z,72.04
2023-05-10T09:48:37.590Z,71.94
2023-05-10T09:49:37.574Z,71.94
2023-05-10T09:50:37.593Z,71.84
2023-05-10T09:51:37.654Z,71.84
2023-05-10T09:52:37.529Z,71.84
2023-05-10T09:53:37.560Z,71.64
2023-05-10T09:54:37.573Z,71.53
2023-05-10T09:55:37.507Z,71.64
2023-05-10T09:56:37.539Z,71.80
2023-05-10T09:57:37.482Z,71.70
2023-05-10T09:58:37.462Z,72.41
2023-05-10T09:59:37.443Z,73.32
2023-05-10T10:00:37.446Z,72.72
2023-05-10T10:01:37.448Z,72.41
2023-05-10T10:02:37.424Z,72.41
2023-05-10T10:03:37.446Z,72.41
2023-05-10T10:04:37.409Z,72.21
2023-05-10T10:05:37.376Z,72.21
2023-05-10T10:06:37.373Z,72.81
2023-05-10T10:07:37.349Z,73.22
2023-05-10T10:08:37.331Z,73.39
2023-05-10T10:09:37.339Z,73.59
2023-05-10T10:10:37.305Z,73.08
2023-05-10T10:11:37.302Z,72.58
2023-05-10T10:12:37.266Z,72.58
2023-05-10T10:13:37.289Z,72.48
2023-05-10T10:14:37.260Z,72.78
2023-05-10T10:15:37.306Z,73.39
2023-05-10T10:16:41.462Z,73.66
2023-05-10T10:17:38.263Z,73.05
2023-05-10T10:18:37.257Z,72.75
2023-05-10T10:19:37.630Z,72.44
2023-05-10T10:20:37.168Z,72.24
2023-05-10T10:21:37.169Z,72.34
2023-05-10T10:22:37.148Z,72.41
2023-05-10T10:23:37.237Z,71.91
2023-05-10T10:24:37.170Z,71.40
2023-05-10T10:25:37.109Z,71.30
2023-05-10T10:26:37.115Z,71.10
2023-05-10T10:27:37.101Z,71.00
2023-05-10T10:28:37.084Z,71.40
2023-05-10T10:29:37.042Z,71.70
2023-05-10T10:30:37.050Z,71.80
2023-05-10T10:31:37.056Z,71.91
2023-05-10T10:32:37.081Z,72.24
2023-05-10T10:33:37.122Z,72.14
2023-05-10T10:34:36.978Z,71.73
2023-05-10T10:35:36.963Z,71.53
2023-05-10T10:36:36.956Z,71.73
2023-05-10T10:37:36.961Z,71.73
2023-05-10T10:38:36.926Z,72.04
2023-05-10T10:39:36.913Z,72.44
2023-05-10T10:40:36.909Z,72.44
2023-05-10T10:41:36.902Z,72.44
2023-05-10T10:42:36.884Z,72.24
2023-05-10T10:43:36.862Z,72.24
2023-05-10T10:44:36.862Z,72.14
2023-05-10T10:45:36.837Z,72.24
2023-05-10T10:46:36.899Z,72.24
2023-05-10T10:47:36.864Z,71.94
2023-05-10T10:48:36.949Z,72.24
2023-05-10T10:49:36.772Z,72.04
2023-05-10T10:50:36.773Z,71.64
2023-05-10T10:51:36.765Z,71.53
2023-05-10T10:52:36.745Z,71.64
2023-05-10T10:53:36.735Z,71.73
2023-05-10T10:54:36.720Z,71.73
2023-05-10T10:55:36.701Z,71.33
2023-05-10T10:56:37.219Z,71.53
2023-05-10T10:57:36.678Z,71.44
2023-05-10T10:58:36.666Z,71.30
2023-05-10T10:59:36.668Z,71.20
2023-05-10T11:00:36.699Z,71.30
2023-05-10T11:01:36.854Z,71.50
2023-05-10T11:02:36.626Z,71.40
2023-05-10T11:03:36.584Z,71.40
2023-05-10T11:04:36.721Z,71.00
2023-05-10T11:05:36.619Z,70.89
2023-05-10T11:06:36.738Z,70.66
2023-05-10T11:07:36.567Z,71.26
2023-05-10T11:08:38.255Z,71.26
2023-05-10T11:09:36.499Z,70.66
2023-05-10T11:10:36.542Z,70.76
2023-05-10T11:11:36.507Z,70.96
2023-05-10T11:12:36.478Z,70.86
2023-05-10T11:13:36.458Z,70.76
2023-05-10T11:14:36.459Z,71.47
2023-05-10T11:15:36.457Z,71.06
2023-05-10T11:16:36.470Z,71.47
2023-05-10T11:17:42.695Z,71.26
2023-05-10T11:18:37.443Z,71.26
2023-05-10T11:19:36.383Z,71.57
2023-05-10T11:20:36.370Z,71.57
2023-05-10T11:21:36.372Z,71.06
2023-05-10T11:22:36.346Z,70.96
2023-05-10T11:23:36.318Z,70.96
2023-05-10T11:24:36.328Z,70.76
2023-05-10T11:25:36.334Z,71.26
2023-05-10T11:26:36.291Z,71.17
2023-05-10T11:27:43.781Z,71.26
2023-05-10T11:28:44.969Z,70.93
2023-05-10T11:29:43.784Z,70.83
2023-05-10T11:30:36.260Z,71.13
2023-05-10T11:31:36.211Z,70.93
2023-05-10T11:32:36.228Z,70.93
2023-05-10T11:33:36.222Z,70.93
2023-05-10T11:34:36.181Z,71.03
2023-05-10T11:35:36.178Z,71.03
2023-05-10T11:36:36.296Z,70.93
2023-05-10T11:37:36.148Z,70.62
2023-05-10T11:38:36.268Z,70.32
2023-05-10T11:39:36.111Z,70.12
2023-05-10T11:40:36.108Z,70.12
2023-05-10T11:41:36.089Z,69.79
2023-05-10T11:42:36.091Z,69.89
2023-05-10T11:43:36.062Z,69.59
2023-05-10T11:44:36.056Z,69.48
2023-05-10T11:45:36.045Z,69.48
2023-05-10T11:46:36.048Z,69.28
2023-05-10T11:47:36.059Z,69.59
2023-05-10T11:48:36.016Z,69.38
2023-05-10T11:49:36.964Z,69.48
2023-05-10T11:50:35.979Z,69.38
2023-05-10T11:51:36.000Z,69.08
2023-05-10T11:52:35.956Z,69.28
2023-05-10T11:53:35.940Z,68.98
2023-05-10T11:54:36.006Z,68.88
2023-05-10T11:55:35.913Z,69.08
2023-05-10T11:56:35.930Z,68.95
2023-05-10T11:57:35.895Z,69.05
2023-05-10T11:58:35.883Z,69.25
2023-05-10T11:59:35.853Z,69.25
2023-05-10T12:00:35.836Z,69.15
2023-05-10T12:01:35.844Z,69.05
2023-05-10T12:02:35.895Z,69.25
2023-05-10T12:03:35.917Z,69.05
2023-05-10T12:04:35.850Z,69.05
2023-05-10T12:05:35.763Z,68.85
2023-05-10T12:06:35.772Z,68.74
2023-05-10T12:07:35.743Z,68.85
2023-05-10T12:08:35.747Z,68.51
2023-05-10T12:09:43.862Z,68.61
2023-05-10T12:10:36.743Z,68.61
2023-05-10T12:11:35.708Z,68.31
2023-05-10T12:12:35.680Z,68.38
2023-05-10T12:13:35.665Z,68.28
2023-05-10T12:14:35.641Z,68.08
2023-05-10T12:15:35.636Z,67.97
2023-05-10T12:16:35.638Z,68.18
2023-05-10T12:17:35.629Z,68.08
2023-05-10T12:18:35.635Z,68.08
2023-05-10T12:19:35.574Z,67.77
2023-05-10T12:20:35.576Z,67.64
2023-05-10T12:21:35.547Z,67.44
2023-05-10T12:22:35.558Z,67.34
2023-05-10T12:23:35.536Z,67.24
2023-05-10T12:24:35.517Z,67.14
2023-05-10T12:25:35.516Z,67.14
2023-05-10T12:26:35.506Z,67.11
2023-05-10T12:27:35.488Z,67.00
2023-05-10T12:28:35.526Z,66.91
2023-05-10T12:29:35.462Z,66.80
2023-05-10T12:30:35.482Z,66.67
2023-05-10T12:31:35.483Z,66.57
2023-05-10T12:32:35.441Z,66.57
2023-05-10T12:33:35.407Z,66.47
2023-05-10T12:34:35.454Z,66.37
2023-05-10T12:35:35.394Z,66.34
2023-05-10T12:36:35.376Z,66.14
2023-05-10T12:37:35.348Z,66.03
2023-05-10T12:38:35.371Z,65.94
2023-05-10T12:39:35.409Z,65.50
2023-05-10T12:40:35.338Z,65.30
2023-05-10T12:41:35.339Z,65.10
2023-05-10T12:42:35.285Z,65.10
2023-05-10T12:43:35.301Z,65.10
2023-05-10T12:44:35.269Z,65.07
2023-05-10T12:45:35.297Z,64.87
2023-05-10T12:46:35.258Z,64.77
2023-05-10T12:47:35.254Z,64.67
2023-05-10T12:48:35.211Z,64.64
2023-05-10T12:49:35.330Z,64.43
2023-05-10T12:50:35.212Z,64.43
2023-05-10T12:51:35.218Z,64.54
2023-05-10T12:52:35.210Z,64.40